createdAt,value
2022-12-12T00:02:55.207Z,-6.53
2022-12-12T00:07:59.250Z,-6.44
2022-12-12T00:13:04.995Z,-6.26
2022-12-12T00:18:08.600Z,-6.19
2022-12-12T00:23:12.287Z,-6.08
2022-12-12T00:28:17.304Z,-5.83
2022-12-12T00:33:21.036Z,-5.69
2022-12-12T00:38:25.116Z,-5.64
2022-12-12T00:43:30.222Z,-5.52
2022-12-12T00:48:34.076Z,-5.40
2022-12-12T00:53:38.568Z,-5.26
2022-12-12T00:58:43.711Z,-5.26
2022-12-12T01:03:47.956Z,-5.23
2022-12-12T01:08:51.568Z,-5.12
2022-12-12T01:13:56.761Z,-5.03
2022-12-12T01:19:01.291Z,-4.96
2022-12-12T01:24:05.463Z,-4.90
2022-12-12T01:29:10.689Z,-4.88
2022-12-12T01:34:14.221Z,-4.92
2022-12-12T01:39:17.732Z,-4.85
2022-12-12T01:44:44.869Z,-4.84
2022-12-12T01:49:53.430Z,-4.95
2022-12-12T01:55:00.726Z,-4.86
2022-12-12T02:00:10.058Z,-4.87
2022-12-12T02:05:23.559Z,-4.87
2022-12-12T02:10:27.129Z,-4.88
2022-12-12T02:15:43.789Z,-5.07
2022-12-12T02:20:55.206Z,-5.31
2022-12-12T02:26:25.428Z,-5.53
2022-12-12T02:31:35.897Z,-5.70
2022-12-12T02:36:48.794Z,-5.96
2022-12-12T02:41:57.061Z,-6.15
2022-12-12T02:47:06.218Z,-6.39
2022-12-12T02:52:11.055Z,-6.52
2022-12-12T02:57:16.748Z,-6.69
2022-12-12T03:03:17.672Z,-6.78
2022-12-12T03:08:36.893Z,-6.72
2022-12-12T03:13:47.636Z,-6.89
2022-12-12T03:18:59.471Z,-7.09
2022-12-12T03:24:07.565Z,-7.20
2022-12-12T03:29:15.610Z,-7.40
2022-12-12T03:34:23.624Z,-7.52
2022-12-12T03:39:33.697Z,-7.71
2022-12-12T03:44:43.464Z,-7.76
2022-12-12T03:49:53.162Z,-7.79
2022-12-12T03:55:04.305Z,-7.95
2022-12-12T04:00:10.715Z,-8.11
2022-12-12T04:05:23.186Z,-8.22
2022-12-12T04:10:47.481Z,-8.18
2022-12-12T04:16:01.116Z,-8.30
2022-12-12T04:21:34.862Z,-8.41
2022-12-12T04:26:42.017Z,-8.51
2022-12-12T04:31:51.983Z,-8.49
2022-12-12T04:36:57.323Z,-8.65
2022-12-12T04:42:03.427Z,-8.78
2022-12-12T04:47:08.550Z,-8.89
2022-12-12T04:52:16.483Z,-8.98
2022-12-12T04:57:25.310Z,-9.01
2022-12-12T05:02:39.220Z,-9.12
2022-12-12T05:07:54.519Z,-9.13
2022-12-12T05:13:01.416Z,-9.24
2022-12-12T05:18:09.862Z,-9.30
2022-12-12T05:23:14.969Z,-9.56
2022-12-12T05:28:18.605Z,-9.44
2022-12-12T05:33:22.209Z,-9.52
2022-12-12T05:38:27.180Z,-9.52
2022-12-12T05:43:31.664Z,-9.53
2022-12-12T05:48:35.719Z,-9.59
2022-12-12T05:53:43.160Z,-9.56
2022-12-12T05:58:47.679Z,-9.49
2022-12-12T06:03:51.551Z,-9.37
2022-12-12T06:08:56.696Z,-9.41
2022-12-12T06:14:00.532Z,-9.16
2022-12-12T06:19:04.948Z,-8.98
2022-12-12T06:24:10.785Z,-8.84
2022-12-12T06:29:15.002Z,-8.65
2022-12-12T06:34:18.660Z,-8.45
2022-12-12T06:39:23.658Z,-8.27
2022-12-12T06:44:27.308Z,-8.05
2022-12-12T06:49:30.856Z,-7.87
2022-12-12T06:54:37.113Z,-7.98
2022-12-12T06:59:40.719Z,-7.84
2022-12-12T07:04:44.373Z,-7.89
2022-12-12T07:09:49.513Z,-7.82
2022-12-12T07:14:53.174Z,-7.97
2022-12-12T07:19:56.814Z,-8.13
2022-12-12T07:25:01.807Z,-8.04
2022-12-12T07:30:05.950Z,-8.09
2022-12-12T07:35:10.421Z,-8.09
2022-12-12T07:40:15.554Z,-8.04
2022-12-12T07:45:20.197Z,-8.05
2022-12-12T07:50:24.787Z,-8.09
2022-12-12T07:55:30.023Z,-8.03
2022-12-12T08:00:33.740Z,-7.85
2022-12-12T08:05:40.700Z,-7.66
2022-12-12T08:10:45.759Z,-7.40
2022-12-12T08:15:49.273Z,-7.38
2022-12-12T08:20:53.004Z,-7.40
2022-12-12T08:25:58.318Z,-7.27
2022-12-12T08:31:02.092Z,-6.94
2022-12-12T08:36:13.790Z,-6.78
2022-12-12T08:41:19.790Z,-6.52
2022-12-12T08:46:24.632Z,-6.52
2022-12-12T08:51:28.242Z,-6.34
2022-12-12T08:56:33.653Z,-5.89
2022-12-12T09:01:37.659Z,-5.79
2022-12-12T09:06:41.642Z,-5.72
2022-12-12T09:11:46.586Z,-5.68
2022-12-12T09:16:50.233Z,-5.29
2022-12-12T09:21:53.749Z,-5.08
2022-12-12T09:26:58.716Z,-4.97
2022-12-12T09:32:06.531Z,-4.81
2022-12-12T09:37:10.103Z,-4.71
2022-12-12T09:42:22.917Z,-4.24
2022-12-12T09:47:35.765Z,-4.10
2022-12-12T09:52:39.875Z,-3.54
2022-12-12T09:57:49.528Z,-2.72
2022-12-12T10:03:15.142Z,-2.15
2022-12-12T10:08:25.468Z,-2.13
2022-12-12T10:13:32.697Z,-1.88
2022-12-12T10:18:41.112Z,-2.01
2022-12-12T10:23:50.576Z,-1.94
2022-12-12T10:29:00.221Z,-2.03
2022-12-12T10:34:18.832Z,-2.53
2022-12-12T10:39:29.990Z,-2.43
2022-12-12T10:44:54.231Z,-2.01
2022-12-12T10:50:07.436Z,-2.23
2022-12-12T10:55:20.347Z,-2.37
2022-12-12T11:00:32.614Z,-2.44
2022-12-12T11:05:39.357Z,-1.85
2022-12-12T11:10:43.146Z,-1.35
2022-12-12T11:15:53.739Z,-0.98
2022-12-12T11:21:07.983Z,-0.53
2022-12-12T11:26:15.165Z,-0.30
2022-12-12T11:31:24.546Z,-0.30
2022-12-12T11:36:34.525Z,-0.25
2022-12-12T11:41:58.607Z,-0.67
2022-12-12T11:47:23.171Z,-0.33
2022-12-12T11:52:29.722Z,0.57
2022-12-12T11:57:51.930Z,0.21
2022-12-12T12:03:19.380Z,0.17
2022-12-12T12:08:40.364Z,1.12
2022-12-12T12:14:00.637Z,1.40
2022-12-12T12:19:13.873Z,0.62
2022-12-12T12:24:32.347Z,0.23
2022-12-12T12:30:13.641Z,0.00
2022-12-12T12:35:31.345Z,-0.07
2022-12-12T12:40:50.187Z,-0.44
2022-12-12T12:45:59.965Z,-0.37
2022-12-12T12:51:11.231Z,-0.66
2022-12-12T12:56:26.309Z,-0.16
2022-12-12T13:01:36.161Z,-0.15
2022-12-12T13:06:52.726Z,-0.58
2022-12-12T13:12:02.793Z,-0.43
2022-12-12T13:17:13.537Z,-0.57
2022-12-12T13:22:26.211Z,-0.74
2022-12-12T13:27:33.107Z,-0.83
2022-12-12T13:32:54.906Z,-0.68
2022-12-12T13:38:00.694Z,-0.94
2022-12-12T13:43:10.078Z,-1.00
2022-12-12T13:48:45.919Z,-1.26
2022-12-12T13:54:14.243Z,-1.56
2022-12-12T13:59:30.703Z,-1.69
2022-12-12T14:04:36.815Z,-1.93
2022-12-12T14:09:49.515Z,-2.10
2022-12-12T14:14:57.022Z,-2.51
2022-12-12T14:20:01.522Z,-2.63
2022-12-12T14:25:09.421Z,-2.88
2022-12-12T14:30:18.874Z,-3.12
2022-12-12T14:35:32.599Z,-3.28
2022-12-12T14:40:41.537Z,-3.52
2022-12-12T14:45:55.879Z,-3.69
2022-12-12T14:51:09.588Z,-4.01
2022-12-12T14:56:17.222Z,-4.63
2022-12-12T15:01:37.564Z,-4.43
2022-12-12T15:06:43.377Z,-4.73
2022-12-12T15:11:50.178Z,-5.20
2022-12-12T15:17:00.364Z,-5.07
2022-12-12T15:22:05.035Z,-5.30
2022-12-12T15:27:19.604Z,-5.61
2022-12-12T15:32:26.050Z,-5.77
2022-12-12T15:37:31.468Z,-5.86
2022-12-12T15:42:37.153Z,-6.05
2022-12-12T15:47:41.166Z,-6.21
2022-12-12T15:52:44.946Z,-6.54
2022-12-12T15:57:52.319Z,-6.44
2022-12-12T16:03:05.014Z,-6.64
2022-12-12T16:08:39.104Z,-6.74
2022-12-12T16:13:46.758Z,-7.00
2022-12-12T16:18:50.308Z,-7.06
2022-12-12T16:23:53.998Z,-7.32
2022-12-12T16:28:58.996Z,-7.41
2022-12-12T16:34:03.908Z,-7.43
2022-12-12T16:39:07.522Z,-7.57
2022-12-12T16:44:12.775Z,-7.64
2022-12-12T16:49:16.405Z,-8.05
2022-12-12T16:54:20.122Z,-7.75
2022-12-12T16:59:25.064Z,-7.79
2022-12-12T17:04:29.132Z,-8.04
2022-12-12T17:09:32.799Z,-8.14
2022-12-12T17:14:39.493Z,-8.16
2022-12-12T17:19:43.062Z,-8.19
2022-12-12T17:24:46.664Z,-8.46
2022-12-12T17:29:51.713Z,-8.37
2022-12-12T17:34:55.397Z,-8.44
2022-12-12T17:39:59.133Z,-8.47
2022-12-12T17:45:05.724Z,-8.52
2022-12-12T17:50:10.846Z,-8.57
2022-12-12T17:55:53.503Z,-8.76
2022-12-12T18:00:40.079Z,-9.03
2022-12-12T18:05:43.708Z,-8.86
2022-12-12T18:10:47.275Z,-8.91
2022-12-12T18:15:56.302Z,-9.09
2022-12-12T18:21:03.888Z,-9.09
2022-12-12T18:26:10.016Z,-9.15
2022-12-12T18:31:15.320Z,-9.13
2022-12-12T18:36:21.009Z,-9.16
2022-12-12T18:41:26.304Z,-9.18
2022-12-12T18:46:35.911Z,-9.16
2022-12-12T18:51:43.852Z,-9.32
2022-12-12T18:56:48.570Z,-9.33
2022-12-12T19:01:53.633Z,-9.43
2022-12-12T19:06:58.756Z,-9.42
2022-12-12T19:12:02.910Z,-9.53
2022-12-12T19:17:08.675Z,-9.55
2022-12-12T19:22:39.964Z,-9.66
2022-12-12T19:27:36.230Z,-9.74
2022-12-12T19:32:41.177Z,-9.77
2022-12-12T19:37:44.927Z,-9.76
2022-12-12T19:42:48.617Z,-9.79
2022-12-12T19:47:53.620Z,-9.89
2022-12-12T19:52:57.135Z,-9.97
2022-12-12T19:58:02.517Z,-9.93
2022-12-12T20:03:07.741Z,-10.03
2022-12-12T20:08:11.414Z,-10.11
2022-12-12T20:13:15.294Z,-10.18
2022-12-12T20:18:20.282Z,-10.27
2022-12-12T20:23:24.240Z,-10.35
2022-12-12T20:28:28.633Z,-10.30
2022-12-12T20:33:34.414Z,-10.28
2022-12-12T20:38:39.426Z,-10.29
2022-12-12T20:43:44.401Z,-10.39
2022-12-12T20:48:51.036Z,-10.64
2022-12-12T20:53:54.791Z,-10.36
2022-12-12T20:59:01.631Z,-10.48
2022-12-12T21:04:09.672Z,-10.54
2022-12-12T21:09:19.146Z,-10.60
2022-12-12T21:14:27.905Z,-10.67
2022-12-12T21:19:33.242Z,-10.86
2022-12-12T21:24:36.964Z,-10.96
2022-12-12T21:29:40.563Z,-10.87
2022-12-12T21:34:45.569Z,-10.88
2022-12-12T21:39:51.298Z,-10.85
2022-12-12T21:44:54.940Z,-10.76
2022-12-12T21:50:00.101Z,-10.73
2022-12-12T21:55:03.693Z,-10.82
2022-12-12T22:00:09.004Z,-10.82
2022-12-12T22:05:17.561Z,-10.63
2022-12-12T22:10:21.041Z,-10.71
2022-12-12T22:15:24.564Z,-10.79
2022-12-12T22:20:30.050Z,-10.96
2022-12-12T22:25:33.665Z,-10.88
2022-12-12T22:30:37.340Z,-10.98
2022-12-12T22:35:42.985Z,-11.00
2022-12-12T22:40:54.626Z,-11.06
2022-12-12T22:45:58.247Z,-11.11
2022-12-12T22:51:12.762Z,-11.23
2022-12-12T22:56:17.017Z,-11.14
2022-12-12T23:01:24.311Z,-11.27
2022-12-12T23:06:31.066Z,-11.33
2022-12-12T23:11:35.354Z,-11.25
2022-12-12T23:16:39.217Z,-11.31
2022-12-12T23:21:44.530Z,-11.30
2022-12-12T23:26:51.510Z,-11.31
2022-12-12T23:31:55.233Z,-11.34
2022-12-12T23:37:00.247Z,-11.38
2022-12-12T23:42:04.430Z,-11.38
2022-12-12T23:47:08.526Z,-11.43
2022-12-12T23:52:14.702Z,-11.46
2022-12-12T23:57:19.045Z,-11.52
